Time;durP1;ratioP1;P1;durP2;ratioP2;P2;SDS_P1;SDS_P2;PMS_P1;PMS_P2;Temp;Humidity;BMP_temperature;BMP_pressure;BME280_temperature;BME280_humidity;BME280_pressure;Samples;Min_cycle;Max_cycle;Signal;HPM_P1;HPM_P2
2023/09/19 00:01:49;;;;;;;3.35;3.25;;;18.90;99.90;;;19.14;60.56;100578.31;5052247;28;20056;-87
2023/09/19 00:04:23;;;;;;;4.03;3.72;;;18.90;99.90;;;19.14;59.91;100587.25;5047552;28;20472;-88
2023/09/19 00:06:53;;;;;;;2.30;2.20;;;18.90;99.90;;;19.23;60.13;100589.50;5046283;28;20044;-88
2023/09/19 00:09:25;;;;;;;2.83;2.72;;;19.00;99.90;;;19.20;59.78;100589.63;5038563;28;20049;-87
2023/09/19 00:11:54;;;;;;;2.83;2.72;;;19.00;99.90;;;19.08;59.56;100565.19;5038359;28;20103;-88
2023/09/19 00:14:26;;;;;;;2.88;2.78;;;19.00;99.90;;;19.18;59.10;100594.19;5049353;28;20045;-86
2023/09/19 00:16:54;;;;;;;2.72;2.63;;;18.90;99.90;;;19.27;59.57;100591.13;5047422;28;20049;-88
2023/09/19 00:19:24;;;;;;;2.70;2.60;;;19.00;99.90;;;19.19;60.31;100590.56;5038293;28;20103;-87
2023/09/19 00:21:53;;;;;;;3.17;3.08;;;19.00;99.90;;;19.17;61.02;100589.78;5052749;28;20045;-86
2023/09/19 00:24:23;;;;;;;3.92;3.45;;;18.90;99.90;;;19.14;61.75;100587.25;5053888;28;20513;-85
2023/09/19 00:26:51;;;;;;;3.38;3.28;;;19.00;99.90;;;19.14;62.32;100599.78;5039866;28;20049;-84
2023/09/19 00:29:20;;;;;;;3.50;3.35;;;18.90;99.90;;;19.15;62.71;100601.50;5049877;28;20044;-83
2023/09/19 00:31:48;;;;;;;3.25;3.15;;;18.90;99.90;;;19.11;62.92;100606.13;5039886;28;20130;-87
2023/09/19 00:34:17;;;;;;;3.30;3.20;;;18.90;99.90;;;18.82;62.94;100551.09;5043623;28;20061;-85
2023/09/19 00:36:47;;;;;;;3.00;2.90;;;18.90;99.90;;;19.10;62.73;100608.88;5046807;28;20059;-87
2023/09/19 00:39:15;;;;;;;15.73;4.93;;;18.80;99.90;;;19.08;63.00;100600.03;5051272;28;20095;-87
2023/09/19 00:41:44;;;;;;;16.48;5.78;;;18.80;99.90;;;18.96;63.54;100605.91;5040021;28;20486;-87
2023/09/19 00:44:13;;;;;;;3.42;3.33;;;18.70;99.90;;;19.06;63.66;100612.63;5042844;28;20049;-84
2023/09/19 00:46:41;;;;;;;2.67;2.58;;;18.80;99.90;;;19.03;64.15;100612.78;5048641;28;20140;-87
2023/09/19 00:49:10;;;;;;;2.78;2.67;;;18.70;99.90;;;18.98;64.50;100591.53;5036879;28;20052;-87
2023/09/19 00:51:45;;;;;;;2.45;2.35;;;18.80;99.90;;;18.98;64.63;100587.97;5046058;28;20479;-86
2023/09/19 00:54:18;;;;;;;3.22;3.13;;;18.80;99.90;;;18.95;63.84;100612.22;5045751;28;20057;-83
2023/09/19 00:56:49;;;;;;;3.20;3.10;;;18.70;99.90;;;18.99;63.66;100603.97;5037183;28;20121;-86
2023/09/19 00:59:17;;;;;;;2.83;2.72;;;18.70;99.90;;;18.85;63.85;100609.91;5063674;28;20042;-87
2023/09/19 01:01:45;;;;;;;3.25;3.15;;;18.50;99.90;;;18.82;63.84;100604.72;5042784;28;20065;-86
2023/09/19 01:04:14;;;;;;;3.10;3.00;;;18.50;99.90;;;18.85;64.10;100626.00;5039754;28;20124;-82
2023/09/19 01:06:43;;;;;;;3.30;3.20;;;18.50;99.90;;;18.87;63.86;100618.78;5049685;28;20090;-87
2023/09/19 01:09:13;;;;;;;5.17;4.23;;;18.50;99.90;;;18.93;64.29;100628.34;5038995;28;20136;-86
2023/09/19 01:11:47;;;;;;;3.72;3.55;;;18.60;99.90;;;18.83;64.60;100608.25;5043510;28;20296;-87
2023/09/19 01:14:32;;;;;;;3.80;3.55;;;18.50;99.90;;;18.74;65.05;100606.84;5063753;28;20071;-85
2023/09/19 01:17:07;;;;;;;3.08;2.97;;;18.40;99.90;;;18.83;65.52;100617.16;5038107;28;20049;-85
2023/09/19 01:20:12;;;;;;;2.60;2.50;;;18.50;99.90;;;18.82;66.07;100618.09;5043382;28;20052;-84
2023/09/19 01:22:57;;;;;;;2.97;2.78;;;18.50;99.90;;;18.82;67.68;100607.38;5048201;28;20061;-85
2023/09/19 01:26:08;;;;;;;3.75;3.55;;;18.50;99.90;;;18.81;68.42;100623.53;5041377;28;20049;-85
2023/09/19 01:28:57;;;;;;;3.10;3.00;;;18.50;99.90;;;18.80;68.97;100627.13;5065350;28;20055;-87
2023/09/19 01:31:33;;;;;;;3.25;3.05;;;18.50;99.90;;;18.77;69.27;100627.28;5043290;28;20049;-87
2023/09/19 01:34:04;;;;;;;3.25;3.15;;;18.50;99.90;;;18.48;68.95;100593.66;5048396;28;20061;-85
2023/09/19 01:36:38;;;;;;;3.10;3.00;;;18.40;99.90;;;18.64;68.35;100604.63;5036316;28;20501;-86
2023/09/19 01:39:13;;;;;;;2.67;2.58;;;18.30;99.90;;;18.52;68.12;100630.09;5053192;28;20052;-85
2023/09/19 01:42:00;;;;;;;3.22;3.13;;;18.20;99.90;;;18.48;67.78;100620.44;5039551;28;20049;-87
2023/09/19 01:44:38;;;;;;;3.10;2.90;;;18.20;99.90;;;18.44;67.80;100621.50;5031654;28;20053;-87
2023/09/19 01:47:21;;;;;;;2.95;2.85;;;18.10;99.90;;;18.45;68.13;100627.72;5034380;28;20049;-88
2023/09/19 01:49:58;;;;;;;2.70;2.60;;;18.10;99.90;;;18.46;67.79;100625.00;5052264;28;20052;-88
2023/09/19 01:52:33;;;;;;;2.95;2.85;;;18.10;99.90;;;18.36;67.96;100630.72;5056552;28;20045;-87
2023/09/19 01:55:10;;;;;;;3.35;3.25;;;18.00;99.90;;;18.36;68.15;100620.03;5046728;28;20038;-87
2023/09/19 01:57:50;;;;;;;2.85;2.75;;;18.00;99.90;;;18.38;68.17;100624.38;5050344;28;20053;-83
2023/09/19 02:00:23;;;;;;;3.42;3.20;;;18.10;99.90;;;18.33;68.27;100637.06;5041333;28;20049;-86
2023/09/19 02:02:58;;;;;;;3.03;2.92;;;18.00;99.90;;;18.30;68.27;100630.97;5051815;28;20095;-82
2023/09/19 02:05:28;;;;;;;3.10;3.00;;;18.00;99.90;;;18.40;68.32;100627.88;5050943;28;20144;-87
2023/09/19 02:07:58;;;;;;;9.60;3.58;;;18.00;99.90;;;18.36;68.44;100622.69;5054469;28;20072;-86
2023/09/19 02:10:26;;;;;;;;;;;18.00;99.90;;;18.34;68.44;100601.34;5050257;28;20049;-86
2023/09/19 02:12:56;;;;;;;3.20;3.10;;;18.10;99.90;;;18.52;68.88;100622.06;5047393;28;19972;-86
2023/09/19 02:15:24;;;;;;;3.05;2.95;;;18.20;99.90;;;18.47;68.88;100629.41;5041066;28;20053;-87
2023/09/19 02:17:53;;;;;;;9.63;4.00;;;18.20;99.90;;;18.46;68.93;100619.63;5052764;28;20114;-86
2023/09/19 02:20:22;;;;;;;2.92;2.83;;;18.20;99.90;;;18.40;69.17;100622.53;5043440;28;20092;-87
2023/09/19 02:22:52;;;;;;;3.00;2.90;;;18.10;99.90;;;18.48;69.14;100623.13;5044966;28;20053;-86
2023/09/19 02:25:20;;;;;;;3.30;3.20;;;18.10;99.90;;;18.49;68.94;100621.28;5052166;28;20040;-87
2023/09/19 02:27:49;;;;;;;3.38;3.08;;;18.10;99.90;;;18.40;69.01;100633.25;5039611;28;20041;-86
2023/09/19 02:30:20;;;;;;;3.35;3.25;;;18.10;99.90;;;18.50;69.13;100631.09;5048235;28;20077;-86
2023/09/19 02:32:50;;;;;;;3.15;3.05;;;18.10;99.90;;;18.41;68.87;100618.91;5063575;28;20057;-86
2023/09/19 02:35:19;;;;;;;3.40;3.30;;;18.10;99.90;;;18.50;69.00;100640.00;5055480;28;20041;-85
2023/09/19 02:37:50;;;;;;;2.95;2.85;;;18.20;99.90;;;18.44;68.63;100634.03;5040648;28;20379;-86
2023/09/19 02:40:21;;;;;;;2.88;2.78;;;18.10;99.90;;;18.39;68.37;100636.84;5046607;28;20045;-86
2023/09/19 02:42:54;;;;;;;2.80;2.63;;;18.10;99.90;;;18.35;68.11;100621.81;5050070;28;20434;-86
2023/09/19 02:45:24;;;;;;;3.15;3.05;;;18.10;99.90;;;18.50;68.19;100631.09;5039662;28;20103;-86
2023/09/19 02:47:52;;;;;;;3.17;3.08;;;18.20;99.90;;;18.47;68.50;100632.06;5049003;28;20045;-86
2023/09/19 02:50:21;;;;;;;3.60;3.40;;;18.20;99.90;;;18.21;68.83;100564.41;5046723;28;20044;-86
2023/09/19 02:52:51;;;;;;;3.70;3.50;;;18.20;99.90;;;18.43;68.65;100619.75;5050929;28;20053;-85
2023/09/19 02:55:21;;;;;;;3.08;2.90;;;18.10;99.90;;;18.42;69.02;100618.00;5050505;28;20046;-86
2023/09/19 02:57:54;;;;;;;3.25;2.80;;;18.10;99.90;;;18.42;69.14;100622.47;5042768;28;20114;-85
2023/09/19 03:00:24;;;;;;;3.17;3.00;;;18.10;99.90;;;18.33;69.41;100615.66;5043761;28;20045;-86
2023/09/19 03:02:55;;;;;;;2.80;2.70;;;18.10;99.90;;;18.50;69.48;100631.09;5050473;28;20056;-86
2023/09/19 03:05:25;;;;;;;3.45;3.15;;;18.10;99.90;;;18.49;69.25;100627.53;5038555;28;20060;-85
2023/09/19 03:07:55;;;;;;;3.15;3.05;;;18.20;99.90;;;18.51;69.19;100624.78;5046514;28;20049;-84
2023/09/19 03:10:24;;;;;;;2.83;2.72;;;18.20;99.90;;;18.54;69.20;100620.16;5047715;28;20053;-84
2023/09/19 03:12:53;;;;;;;2.60;2.50;;;18.20;99.90;;;18.55;68.78;100638.00;5052519;28;20075;-86
2023/09/19 03:15:22;;;;;;;2.92;2.83;;;18.20;99.90;;;18.52;68.93;100632.78;5040997;28;20037;-86
2023/09/19 03:17:53;;;;;;;2.70;2.60;;;18.20;99.90;;;18.53;69.35;100639.00;5050686;28;20053;-85
2023/09/19 03:20:23;;;;;;;2.90;2.80;;;18.20;99.90;;;18.55;69.86;100638.00;5049793;28;20091;-86
2023/09/19 03:22:52;;;;;;;2.75;2.65;;;18.20;99.90;;;18.59;69.85;100633.38;5053031;28;20487;-85
2023/09/19 03:25:24;;;;;;;3.00;2.90;;;18.30;99.90;;;17.77;69.52;100521.53;5050492;28;20100;-86
2023/09/19 03:27:53;;;;;;;2.83;2.72;;;18.20;99.90;;;18.56;69.66;100628.16;5045302;28;20077;-86
2023/09/19 03:30:23;;;;;;;;;;;18.20;99.90;;;18.41;69.30;100624.25;5055089;28;20144;-86
2023/09/19 03:32:53;;;;;;;3.30;3.20;;;18.20;99.90;;;18.45;69.45;100625.03;5038658;28;20320;-86
2023/09/19 03:35:21;;;;;;;2.88;2.78;;;18.10;99.90;;;18.43;69.45;100617.06;5046568;28;20075;-85
2023/09/19 03:37:52;;;;;;;3.28;3.08;;;18.10;99.90;;;18.38;69.80;100616.34;5045849;28;20056;-88
2023/09/19 03:40:21;;;;;;;2.72;2.63;;;18.10;99.90;;;18.41;70.33;100632.28;5050443;28;20641;-86
2023/09/19 03:42:52;;;;;;;6.45;6.05;;;18.10;99.90;;;18.39;70.31;100635.97;5049911;28;20104;-85
2023/09/19 03:45:20;;;;;;;12.00;3.85;;;18.10;99.90;;;18.43;70.64;100630.47;5042391;28;20144;-86
2023/09/19 03:47:52;;;;;;;3.03;2.92;;;18.10;99.90;;;18.50;70.46;100640.00;5049996;28;20049;-85
2023/09/19 03:50:23;;;;;;;2.97;2.88;;;18.20;99.90;;;18.58;70.50;100648.56;5049631;28;20148;-86
2023/09/19 03:52:57;;;;;;;3.28;3.08;;;18.20;99.90;;;18.49;70.10;100648.97;5039475;28;20048;-85
2023/09/19 03:55:26;;;;;;;2.80;2.70;;;18.20;99.90;;;18.53;70.07;100655.06;5069984;28;20045;-86
2023/09/19 03:57:56;;;;;;;3.13;2.92;;;18.20;99.90;;;18.47;70.22;100656.19;5049551;28;20038;-85
2023/09/19 04:00:26;;;;;;;3.10;3.00;;;18.20;99.90;;;18.49;70.38;100646.28;5049472;28;20045;-86
2023/09/19 04:02:56;;;;;;;3.42;3.33;;;18.10;99.90;;;18.44;71.29;100661.69;5040858;28;20063;-86
2023/09/19 04:05:25;;;;;;;2.75;2.65;;;18.10;99.90;;;18.40;71.57;100659.13;5054073;28;20049;-86
2023/09/19 04:07:54;;;;;;;4.38;3.63;;;18.10;99.90;;;18.47;71.39;100666.03;5038344;28;20048;-83
2023/09/19 04:10:22;;;;;;;3.13;3.03;;;18.10;99.90;;;18.42;71.26;100660.88;5049520;28;20053;-85
2023/09/19 04:12:56;;;;;;;6.43;4.65;;;18.10;99.90;;;18.47;70.54;100676.72;5042302;28;20122;-86
2023/09/19 04:15:25;;;;;;;3.28;3.17;;;18.10;99.90;;;18.30;69.25;100660.44;5049601;28;20053;-86
2023/09/19 04:17:55;;;;;;;3.08;2.97;;;18.10;99.90;;;18.29;68.14;100664.06;5048909;28;20135;-85
2023/09/19 04:20:24;;;;;;;3.10;3.00;;;18.00;99.90;;;18.27;67.57;100664.13;5038490;28;20064;-86
2023/09/19 04:22:52;;;;;;;3.30;3.17;;;18.00;99.90;;;18.22;67.55;100667.88;5049465;28;20049;-86
2023/09/19 04:25:21;;;;;;;5.95;3.38;;;17.90;99.90;;;18.18;67.55;100661.78;5047954;28;20359;-85
2023/09/19 04:27:49;;;;;;;3.05;2.95;;;17.90;99.90;;;18.29;67.65;100672.09;5052072;28;20059;-84
2023/09/19 04:30:21;;;;;;;2.85;2.75;;;17.90;99.90;;;18.35;67.80;100672.69;5038608;28;20517;-85
2023/09/19 04:32:50;;;;;;;2.97;2.88;;;18.00;99.90;;;18.35;67.74;100662.00;5053554;28;20056;-84
2023/09/19 04:35:20;;;;;;;3.55;3.05;;;18.00;99.90;;;18.31;67.70;100670.22;5049361;28;20464;-83
2023/09/19 04:37:49;;;;;;;2.90;2.80;;;18.00;99.90;;;18.41;67.84;100672.47;5049712;28;20057;-85
2023/09/19 04:40:19;;;;;;;2.70;2.60;;;18.10;99.90;;;18.22;67.78;100660.72;5040543;28;20505;-86
2023/09/19 04:42:56;;;;;;;2.80;2.70;;;18.00;99.90;;;18.34;68.25;100675.44;5042180;28;20483;-86
2023/09/19 04:45:27;;;;;;;2.97;2.88;;;18.00;99.90;;;18.29;68.82;100683.66;5049457;28;20049;-87
2023/09/19 04:47:56;;;;;;;4.38;4.00;;;18.00;99.90;;;18.27;68.96;100680.19;5038316;28;20072;-86
2023/09/19 04:50:27;;;;;;;3.38;3.05;;;17.90;99.90;;;18.25;69.12;100673.16;5052912;28;20072;-86
2023/09/19 04:52:56;;;;;;;3.78;3.58;;;17.90;99.90;;;18.22;69.30;100674.13;5053108;28;20055;-81
2023/09/19 04:55:24;;;;;;;2.85;2.75;;;17.90;99.90;;;18.31;69.63;100676.44;5052997;28;20040;-85
2023/09/19 04:57:53;;;;;;;3.08;2.97;;;18.00;99.90;;;18.41;69.65;100675.16;5052905;28;20044;-84
2023/09/19 05:00:24;;;;;;;2.60;2.50;;;18.10;99.90;;;18.50;69.58;100679.31;5064850;28;20049;-85
2023/09/19 05:02:57;;;;;;;;;;;18.10;99.90;;;18.40;69.94;100660.03;5048209;28;20048;-85
2023/09/19 05:05:26;;;;;;;2.55;2.45;;;18.20;99.90;;;18.45;70.28;100690.19;5052767;28;19920;-85
2023/09/19 05:07:55;;;;;;;2.70;2.60;;;18.10;99.90;;;18.51;70.68;100689.97;5052771;28;20063;-85
2023/09/19 05:10:24;;;;;;;3.17;3.08;;;18.20;99.90;;;18.56;70.87;100687.09;5052881;28;20056;-85
2023/09/19 05:12:55;;;;;;;2.80;2.70;;;18.20;99.90;;;18.47;71.00;100682.09;5052849;28;20521;-85
2023/09/19 05:15:24;;;;;;;3.10;3.00;;;18.20;99.90;;;18.56;71.90;100687.94;5052968;28;20123;-83
2023/09/19 05:17:54;;;;;;;3.10;3.00;;;18.20;99.90;;;18.42;73.82;100686.75;5053325;28;20045;-86
2023/09/19 05:20:29;;;;;;;2.80;2.70;;;18.10;99.90;;;18.23;74.84;100662.50;5052305;28;20037;-84
2023/09/19 05:23:07;;;;;;;2.60;2.50;;;18.10;99.90;;;18.38;75.58;100695.81;5052234;28;20490;-77
2023/09/19 05:25:38;;;;;;;2.90;2.80;;;18.00;99.90;;;18.26;76.01;100683.78;5052931;28;20052;-79
2023/09/19 05:28:08;;;;;;;3.38;3.17;;;17.90;99.90;;;18.16;76.99;100673.47;5052904;28;20044;-78
2023/09/19 05:30:38;;;;;;;3.53;3.35;;;17.80;99.90;;;17.95;77.43;100651.09;5052872;28;20479;-76
2023/09/19 05:33:08;;;;;;;24.85;4.80;;;17.80;99.90;;;18.04;78.01;100666.78;5034951;28;20084;-76
2023/09/19 05:35:39;;;;;;;14.23;9.05;;;17.80;99.90;;;17.98;78.33;100667.91;5052506;28;20049;-77
2023/09/19 05:38:09;;;;;;;3.40;3.20;;;17.70;99.90;;;18.02;78.97;100680.22;5052853;28;20049;-75
2023/09/19 05:40:38;;;;;;;3.00;2.90;;;17.70;99.90;;;18.05;79.27;100684.63;5052528;28;20045;-75
2023/09/19 05:43:08;;;;;;;2.88;2.78;;;17.70;99.90;;;18.04;79.74;100675.69;5052409;28;20041;-74
2023/09/19 05:45:37;;;;;;;2.60;2.50;;;17.70;99.90;;;18.00;80.46;100687.44;5052695;28;20049;-76
2023/09/19 05:48:13;;;;;;;2.90;2.80;;;17.70;99.90;;;17.96;80.69;100701.03;5052732;28;20049;-74
2023/09/19 05:50:41;;;;;;;3.05;2.95;;;17.70;99.90;;;17.82;81.71;100696.19;5052390;28;20037;-75
2023/09/19 05:53:11;;;;;;;3.08;2.97;;;17.60;99.90;;;17.87;82.26;100706.69;5052242;28;20084;-75
2023/09/19 05:55:40;;;;;;;3.60;3.30;;;17.60;99.90;;;17.80;82.42;100692.69;5052399;28;20060;-74
2023/09/19 05:58:09;;;;;;;2.83;2.72;;;17.50;99.90;;;17.83;82.54;100708.63;5051496;28;20045;-74
2023/09/19 06:00:38;;;;;;;2.72;2.63;;;17.50;99.90;;;17.78;82.84;100699.91;5051481;28;20041;-75
2023/09/19 06:03:07;;;;;;;3.85;3.50;;;17.50;99.90;;;17.68;83.17;100682.44;5051999;28;20095;-75
2023/09/19 06:05:39;;;;;;;6.45;3.08;;;17.40;99.90;;;17.70;83.64;100699.31;5051890;28;20115;-74
2023/09/19 06:08:09;;;;;;;4.63;4.28;;;17.40;99.90;;;17.65;84.15;100697.72;5052186;28;20095;-73
2023/09/19 06:10:37;;;;;;;2.80;2.70;;;17.40;99.90;;;17.69;84.14;100702.88;5052106;28;20115;-75
2023/09/19 06:13:09;;;;;;;7.43;4.18;;;17.40;99.90;;;17.67;84.23;100707.41;5051033;28;20045;-75
2023/09/19 06:15:38;;;;;;;2.80;2.70;;;17.40;99.90;;;17.63;84.72;100707.59;5051013;28;20049;-74
2023/09/19 06:18:15;;;;;;;3.30;3.10;;;17.30;99.90;;;17.67;85.03;100711.91;5052032;28;20048;-75
2023/09/19 06:20:45;;;;;;;4.32;3.10;;;17.40;99.90;;;17.64;85.05;100699.50;5052694;28;20077;-75
2023/09/19 06:23:13;;;;;;;2.85;2.75;;;17.30;99.90;;;17.57;85.34;100703.34;5052036;28;20068;-75
2023/09/19 06:25:43;;;;;;;3.22;3.03;;;17.30;99.90;;;17.47;85.50;100695.66;5051960;28;20060;-74
2023/09/19 06:28:13;;;;;;;2.70;2.60;;;17.20;99.90;;;17.56;85.62;100701.59;5067213;28;20608;-75
2023/09/19 06:30:41;;;;;;;2.92;2.83;;;17.20;99.90;;;17.58;85.41;100705.09;5052515;28;20071;-75
2023/09/19 06:33:12;;;;;;;2.92;2.83;;;17.20;99.90;;;17.56;85.44;100711.41;5053509;28;20056;-75
2023/09/19 06:35:46;;;;;;;2.90;2.80;;;17.30;99.90;;;17.63;85.26;100718.31;5055583;28;20116;-73
2023/09/19 06:38:15;;;;;;;3.22;3.13;;;17.30;99.90;;;17.73;85.38;100720.56;5055615;28;20047;-75
2023/09/19 06:40:43;;;;;;;3.35;3.15;;;17.40;99.90;;;17.71;84.98;100706.38;5055628;28;20052;-75
2023/09/19 06:43:12;;;;;;;3.08;2.88;;;17.40;99.90;;;17.83;84.92;100723.78;5054383;28;20057;-75
2023/09/19 06:45:40;;;;;;;3.88;3.58;;;17.50;99.90;;;17.87;84.92;100720.06;5055565;28;20055;-75
2023/09/19 06:48:10;;;;;;;3.33;3.17;;;17.60;99.90;;;17.93;84.99;100725.22;5055197;28;20478;-75
2023/09/19 06:50:41;;;;;;;4.13;3.30;;;17.60;99.90;;;17.82;84.65;100712.25;5055433;28;20045;-73
2023/09/19 06:53:10;;;;;;;9.63;3.72;;;17.60;99.90;;;17.88;85.06;100716.50;5055391;28;20049;-78
2023/09/19 06:55:38;;;;;;;3.30;3.10;;;17.60;99.90;;;17.89;85.01;100719.09;5055811;28;20542;-77
2023/09/19 06:58:07;;;;;;;2.85;2.75;;;17.60;99.90;;;17.99;85.31;100733.03;5054228;28;20110;-76
2023/09/19 07:00:37;;;;;;;2.60;2.50;;;17.60;99.90;;;17.94;85.45;100722.47;5054461;28;20071;-79
2023/09/19 07:03:11;;;;;;;2.95;2.85;;;17.60;99.90;;;18.02;85.33;100724.91;5053390;28;20093;-75
2023/09/19 07:05:42;;;;;;;3.03;2.92;;;17.70;99.90;;;17.87;85.70;100690.63;5054638;28;20085;-74
2023/09/19 07:08:13;;;;;;;4.07;3.60;;;17.80;99.90;;;18.14;85.53;100728.91;5054885;28;20557;-75
2023/09/19 07:10:48;;;;;;;3.17;3.03;;;17.80;99.90;;;18.05;85.63;100730.13;5054971;28;20060;-73
2023/09/19 07:13:17;;;;;;;3.35;3.15;;;17.80;99.90;;;18.23;85.77;100723.19;5054993;28;20406;-77
2023/09/19 07:15:47;;;;;;;3.83;3.58;;;17.90;99.90;;;18.22;85.58;100705.38;5055533;28;20037;-77
2023/09/19 07:18:17;;;;;;;2.90;2.80;;;17.90;99.90;;;18.24;85.87;100723.13;5055188;28;20079;-73
2023/09/19 07:20:49;;;;;;;2.75;2.65;;;17.90;99.90;;;18.31;85.90;100730.00;5054847;28;20048;-80
2023/09/19 07:23:20;;;;;;;2.83;2.72;;;18.00;99.90;;;18.28;85.69;100703.34;5054860;28;20463;-80
2023/09/19 07:25:49;;;;;;;3.80;3.50;;;18.10;99.90;;;18.50;85.02;100731.09;5054407;28;20045;-78
2023/09/19 07:28:18;;;;;;;2.95;2.85;;;18.20;99.90;;;18.59;84.51;100736.06;5054799;28;20450;-77
2023/09/19 07:30:46;;;;;;;6.13;3.28;;;18.30;99.90;;;18.67;84.17;100743.81;5054731;28;20049;-78
2023/09/19 07:33:15;;;;;;;5.68;3.13;;;18.40;99.90;;;18.58;83.71;100714.72;5054466;28;20053;-89
2023/09/19 07:35:47;;;;;;;4.60;3.65;;;18.40;99.90;;;18.77;82.99;100740.72;5054604;28;20090;-79
2023/09/19 07:38:17;;;;;;;2.88;2.78;;;18.50;99.90;;;18.80;82.91;100740.59;5053529;28;20045;-86
2023/09/19 07:40:47;;;;;;;4.88;3.45;;;18.50;99.90;;;18.82;82.10;100738.72;5054727;28;20045;-78
2023/09/19 07:43:15;;;;;;;3.53;3.30;;;18.50;99.90;;;18.85;81.85;100721.66;5054548;28;20132;-82
2023/09/19 07:45:44;;;;;;;3.65;3.30;;;18.50;99.90;;;18.92;81.50;100749.94;5053808;28;20049;-80
2023/09/19 07:48:14;;;;;;;4.95;3.10;;;18.60;99.90;;;18.97;80.92;100723.81;5054598;28;20060;-82
2023/09/19 07:50:44;;;;;;;;;;;18.60;99.90;;;19.05;81.02;100744.97;5054678;28;20051;-84
2023/09/19 07:53:16;;;;;;;3.13;3.03;;;18.70;99.90;;;18.47;80.58;100644.59;5054159;28;19925;-72
2023/09/19 07:55:47;;;;;;;3.13;3.03;;;18.80;99.90;;;19.24;80.21;100736.06;5054993;28;20045;-93
2023/09/19 07:58:18;;;;;;;3.28;3.17;;;18.90;99.90;;;19.33;79.24;100738.41;5057304;28;20041;-92
2023/09/19 08:00:46;;;;;;;4.47;3.15;;;19.00;99.90;;;19.55;79.12;100733.84;5055491;28;20045;-88
2023/09/19 08:03:15;;;;;;;3.67;3.45;;;19.20;99.90;;;19.58;78.27;100751.66;5054880;28;20041;-94
2023/09/19 08:05:45;;;;;;;3.65;3.13;;;19.30;99.90;;;19.52;77.80;100725.06;5053868;28;20044;-81
2023/09/19 08:08:14;;;;;;;2.83;2.72;;;19.20;99.90;;;19.54;78.21;100717.84;5053281;28;20589;-80
2023/09/19 08:10:48;;;;;;;2.80;2.70;;;19.20;99.90;;;18.87;78.65;100610.72;5054148;28;20045;-81
2023/09/19 08:13:18;;;;;;;4.50;4.07;;;19.20;99.90;;;19.41;79.54;100727.34;5053598;28;20486;-80
2023/09/19 08:15:47;;;;;;;3.03;2.90;;;19.10;99.90;;;19.33;79.30;100718.75;5053731;28;20127;-81
2023/09/19 08:18:16;;;;;;;2.60;2.50;;;19.00;99.90;;;19.22;79.26;100710.28;5053949;28;20741;-81
2023/09/19 08:20:50;;;;;;;25.95;3.55;;;18.90;99.90;;;19.19;78.42;100713.06;5053382;28;20052;-81
2023/09/19 08:23:19;;;;;;;3.53;3.25;;;18.90;99.90;;;19.16;79.17;100723.94;5053218;28;20064;-81
2023/09/19 08:25:48;;;;;;;2.63;2.53;;;18.80;99.90;;;19.33;79.35;100719.63;5053160;28;20111;-80
2023/09/19 08:28:23;;;;;;;48.53;6.53;;;19.00;99.90;;;19.23;78.52;100722.72;5053566;28;20073;-81
2023/09/19 08:30:53;;;;;;;2.95;2.85;;;19.00;99.90;;;19.18;79.34;100724.75;5053845;28;20063;-80
2023/09/19 08:33:21;;;;;;;3.28;2.95;;;18.90;99.90;;;19.09;79.13;100722.41;5053078;28;20065;-81
2023/09/19 08:35:49;;;;;;;6.53;4.28;;;18.80;99.90;;;18.81;79.46;100725.38;5049236;28;20115;-80
2023/09/19 08:38:18;;;;;;;3.67;3.47;;;18.50;99.90;;;18.71;79.66;100721.31;5068439;28;20045;-79
2023/09/19 08:40:46;;;;;;;4.13;3.88;;;18.40;99.90;;;18.77;80.50;100702.31;5053102;28;20045;-80
2023/09/19 08:43:15;;;;;;;3.67;3.47;;;18.40;99.90;;;18.67;81.02;100717.00;5053298;28;20041;-79
2023/09/19 08:45:45;;;;;;;3.78;3.47;;;18.40;99.90;;;18.68;80.96;100716.94;5053173;28;20076;-79
2023/09/19 08:48:24;;;;;;;6.85;4.18;;;18.40;99.90;;;18.60;81.41;100689.59;5053134;28;20506;-79
2023/09/19 08:51:03;;;;;;;3.08;2.97;;;18.30;99.90;;;18.70;82.41;100711.53;5053355;28;20140;-80
2023/09/19 08:53:42;;;;;;;3.28;3.17;;;18.30;99.90;;;18.78;82.55;100721.00;5053217;28;20110;-80
2023/09/19 08:56:14;;;;;;;3.35;3.17;;;18.40;99.90;;;18.88;82.76;100713.47;5036720;28;20041;-80
2023/09/19 08:58:49;;;;;;;3.65;3.25;;;18.60;99.90;;;19.08;82.44;100694.75;5065256;28;20080;-80
2023/09/19 09:01:24;;;;;;;7.78;4.60;;;18.80;99.90;;;19.23;81.10;100728.97;5046387;28;20041;-80
2023/09/19 09:03:55;;;;;;;8.50;3.63;;;18.90;99.90;;;19.34;80.16;100710.63;5052185;28;20049;-80
2023/09/19 09:06:24;;;;;;;;;;;19.00;99.90;;;19.18;79.64;100722.91;5052911;28;20079;-82
2023/09/19 09:08:54;;;;;;;3.42;3.22;;;19.00;99.90;;;19.32;79.60;100716.97;5052566;28;19928;-80
2023/09/19 09:11:24;;;;;;;3.17;3.08;;;19.00;99.90;;;19.37;79.92;100680.13;5053085;28;20047;-84
2023/09/19 09:13:53;;;;;;;;;;;19.20;99.90;;;19.44;78.78;100735.25;5037158;28;20041;-80
2023/09/19 09:16:25;;;;;;;2.90;2.80;;;19.20;99.90;;;19.34;79.29;100715.13;5048545;28;20322;-82
2023/09/19 09:18:54;;;;;;;5.70;4.35;;;19.10;99.90;;;19.35;80.24;100695.44;5046417;28;20044;-81
2023/09/19 09:21:26;;;;;;;14.35;3.00;;;19.10;99.90;;;19.17;80.73;100686.31;5052729;28;20071;-80
2023/09/19 09:23:54;;;;;;;11.05;4.95;;;19.10;99.90;;;19.55;79.72;100711.53;5052688;28;20049;-81
2023/09/19 09:26:43;;;;;;;2.83;2.67;;;19.20;99.90;;;19.58;79.43;100725.69;5052440;28;20444;-81
2023/09/19 09:29:12;;;;;;;7.18;3.90;;;19.30;99.90;;;19.72;79.29;100699.09;5052924;28;20056;-78
2023/09/19 09:31:48;;;;;;;3.28;2.95;;;19.40;99.90;;;19.72;79.63;100706.28;5052993;28;20051;-81
2023/09/19 09:34:18;;;;;;;3.08;2.90;;;19.40;99.90;;;19.89;79.18;100708.22;5052355;28;20057;-81
2023/09/19 09:36:53;;;;;;;8.02;3.58;;;19.60;99.90;;;19.93;78.41;100707.13;5053106;28;20040;-81
2023/09/19 09:39:32;;;;;;;2.55;2.45;;;19.60;99.90;;;19.88;79.13;100701.97;5050968;28;20094;-80
2023/09/19 09:42:02;;;;;;;4.00;3.63;;;19.60;99.90;;;19.86;78.88;100694.94;5052608;28;20037;-80
2023/09/19 09:44:33;;;;;;;9.88;3.10;;;19.60;99.90;;;19.91;79.30;100717.97;5052914;28;20089;-77
2023/09/19 09:50:06;;;;;;;5.15;4.03;;;19.70;99.90;;;19.84;77.98;100724.53;5052959;28;20120;-80
2023/09/19 09:52:47;;;;;;;3.20;3.00;;;19.60;99.90;;;19.86;79.28;100724.47;5052178;28;20053;-81
2023/09/19 09:55:15;;;;;;;3.22;3.03;;;19.60;99.90;;;19.81;79.56;100716.63;5035735;28;20045;-80
2023/09/19 09:57:44;;;;;;;3.03;2.92;;;19.50;99.90;;;19.87;79.07;100694.88;5052062;28;20079;-80
2023/09/19 10:00:20;;;;;;;4.05;3.65;;;19.50;99.90;;;19.74;78.76;100717.84;5052066;28;20049;-81
2023/09/19 10:02:50;;;;;;;3.70;3.10;;;19.50;99.90;;;19.63;78.81;100695.94;5052579;28;20095;-79
2023/09/19 10:05:34;;;;;;;3.28;3.17;;;19.40;99.90;;;19.49;79.38;100650.09;5052244;28;20051;-79
2023/09/19 10:08:15;;;;;;;3.47;3.17;;;19.30;99.90;;;19.46;79.54;100679.72;5053998;28;20048;-78
2023/09/19 10:10:53;;;;;;;3.55;3.13;;;19.20;99.90;;;19.55;79.96;100658.72;5056254;28;20395;-77
2023/09/19 10:13:23;;;;;;;9.20;3.58;;;19.20;99.90;;;19.61;80.30;100666.50;5056114;28;20045;-77
2023/09/19 10:15:54;;;;;;;2.97;2.88;;;19.30;99.90;;;19.76;80.65;100686.44;5055950;28;20041;-78
2023/09/19 10:18:27;;;;;;;3.75;3.42;;;19.40;99.90;;;19.82;80.70;100645.91;5055976;28;20474;-78
2023/09/19 10:20:57;;;;;;;3.30;3.00;;;19.50;99.90;;;19.91;79.32;100661.56;5040433;28;20119;-78
2023/09/19 10:23:29;;;;;;;3.10;3.00;;;19.60;99.90;;;20.14;79.45;100671.25;5056613;28;20085;-77
2023/09/19 10:26:01;;;;;;;3.92;3.60;;;19.80;99.90;;;20.13;78.46;100654.25;5056368;28;20398;-79
2023/09/19 10:28:33;;;;;;;11.73;3.83;;;19.90;99.90;;;20.12;78.44;100690.13;5069817;28;20053;-79
2023/09/19 10:31:03;;;;;;;3.33;3.13;;;19.80;99.90;;;20.08;78.14;100672.41;5055482;28;20449;-79
2023/09/19 10:33:38;;;;;;;4.78;3.20;;;19.80;99.90;;;19.94;78.53;100698.16;5055860;28;20132;-79